Nearby METAR Reports

 

KCPC - Whiteville, North Carolina, USA
Distance from station: NNE 17mi, 28km
Updated: 05/26/2017 1:05am
Clear
Clear
 Wind from SW
Wind: SW 7 mph , 11 km/h, Gust: 16 mph , 26 km/h
Temperature: 66°F , 19°C
Dew Point: 54°F , 12°C
Humidity: 64%
Barometer: 29.84 inHg , 1010.5 hPa
Clouds: Clear
Visibility: 10 miles , 16 km
2017/05/26 05:05 KCPC 260505Z AUTO 22006G14KT 10SM CLR 19/12 A2984 RMK AO2 T01910115
KCRE - North Myrtle Bea, South Carolina, USA
Distance from station: SSE 19mi, 31km
Updated: 05/26/2017 12:53am
Clear
Clear
 Wind from WSW
Wind: WSW 14 mph , 22 km/h
Temperature: 68°F , 20°C
Dew Point: 54°F , 12°C
Humidity: 60%
Barometer: 29.85 inHg , 1010.8 hPa
Clouds: Clear
Visibility: 10 miles , 16 km
2017/05/26 04:53 KCRE 260453Z AUTO 25012KT 10SM CLR 20/12 A2985 RMK AO1 SLP110 T02000122 402560150
 
KHYW - Conway-Horry Cty, South Carolina, USA
Distance from station: SW 22mi, 35km
Updated: 05/26/2017 1:15am
Clear
Clear
 Wind from SW
Wind: SW 5 mph , 7 km/h
Temperature: 61°F , 16°C
Dew Point: 55°F , 13°C
Humidity: 83%
Barometer: 29.87 inHg , 1011.5 hPa
Clouds: Clear
Visibility: 10 miles , 16 km
2017/05/26 05:15 KHYW 260515Z AUTO 22004KT 10SM CLR 16/13 A2987 RMK AO2
KMAO - Marion, South Carolina, USA
Distance from station: WNW 28mi, 45km
Updated: 05/26/2017 12:55am
Clear
Clear
 Wind from SW
Wind: SW 7 mph , 11 km/h
Temperature: 63°F , 17°C
Dew Point: 52°F , 11°C
Humidity: 68%
Barometer: 29.86 inHg , 1011.2 hPa
Clouds: Clear
Visibility: 7 miles , 11 km
2017/05/26 04:55 KMAO 260455Z AUTO 22006KT 7SM CLR 17/11 A2986 RMK AO2
 
KMYR - Myrtle Beach, South Carolina, USA
Distance from station: S 28mi, 45km
Updated: 05/26/2017 12:56am
Clear
Clear
 Wind from WSW
Wind: WSW 8 mph , 13 km/h
Temperature: 66°F , 19°C
Dew Point: 54°F , 12°C
Humidity: 64%
Barometer: 29.88 inHg , 1011.9 hPa
Clouds: Clear
Visibility: 10 miles , 16 km
2017/05/26 04:56 KMYR 260456Z AUTO 24007KT 10SM CLR 19/12 A2988 RMK AO2 SLP118 T01890122 402560189
KLBT - Lumberton, North Carolina, USA
Distance from station: NNW 39mi, 62km
Updated: 05/26/2017 12:54am
Clear
Clear
 Wind from SW
Wind: SW 9 mph , 15 km/h
Temperature: 64°F , 18°C
Dew Point: 54°F , 12°C
Humidity: 68%
Barometer: 29.82 inHg , 1009.8 hPa
Clouds: Clear
Visibility: 10 miles , 16 km
2017/05/26 04:54 KLBT 260454Z AUTO 22008KT 10SM CLR 18/12 A2982 RMK AO2 SLP096 T01780122 402390178
 
KSUT - Southport, North Carolina, USA
Distance from station: E 46mi, 74km
Updated: 05/26/2017 1:15am
Clear
Clear
 Wind from W
Wind: W 13 mph , 20 km/h, Gust: 25 mph , 41 km/h
Temperature: 72°F , 22°C
Dew Point: 57°F , 14°C
Humidity: 61%
Barometer: 29.85 inHg , 1010.8 hPa
Clouds: Clear
Visibility: 10 miles , 16 km
2017/05/26 05:15 KSUT 260515Z AUTO 26011G22KT 10SM CLR 22/14 A2985 RMK AO2 T02150136
KFLO - Florence, South Carolina, USA
Distance from station: W 50mi, 81km
Updated: 05/26/2017 12:53am
Clear
Clear
 Wind from WSW
Wind: WSW 8 mph , 13 km/h
Temperature: 64°F , 18°C
Dew Point: 54°F , 12°C
Humidity: 68%
Barometer: 29.85 inHg , 1010.8 hPa
Clouds: Clear
Visibility: 10 miles , 16 km
2017/05/26 04:53 KFLO 260453Z AUTO 25007KT 10SM CLR 18/12 A2985 RMK AO2 SLP107 T01780122 402330172